Главная страница
METAR-TAF:

METAR-TAF

Аэропорты :

Нджамена, Чад

широта: 12-08N, долгота: 015-02E, высота над уровнем моря: 295 м

Текущие метеонаблюдения

Эта сводка был подготовлена 46 минут назад, в 23:00 UTC
Ветер 5 Узел от западный, изменяющийся между западный и северно-северо-западный
Температура 23°C
Влажность 94%
Давление 1011 hPa
Видимость: 8000 м
Отдельные облака на высоте 4000 фута, Кучево-дождевые.
гроза

METAR: FTTJ 192300Z 26005KT 260V340 8000 TS SCT040CB 23/22 Q1011 TEMPO 4000 TSRA

Время: 00:46 (23:46 UTC)

Прогноз

Эта сводка был подготовлена 46 минут назад, в 23:00 UTC
Прогноз действительный с 20-го 00 UTC до 21-го 06 UTC
Ветер 6 Узел от юго-западный
Видимость 10 км и более
небольшая облачность на высоте 3000 фута
временами
С 20-го 04 UTC до 20-го 10 UTC
Видимость: 4000 м
гроза, дождь
Вероятность 30% :
временами
С 20-го 14 UTC до 20-го 20 UTC
Видимость: 4000 м
гроза, дождь

TAF: FTTJ 192300Z 2000/2106 22006KT 9999 FEW030 TEMPO 2004/2010 4000 TSRA PROB30 TEMPO 2014/2020 4000 TSRA

Метеонаблюдения и прогнозы для более 4000 аэропортов (сводки METAR и TAF).

Имеющиеся станции представлены на карте желтыми и красными точками.

Чтобы увидеть название станции, наведите на нее мышь.

Затем щелкните, чтобы увидеть метеонаблюдения и метеопрогнозы.

Управление картой: чтобы увеличить масштаб, щелкните зеленые кнопки с черным крестиком; чтобы уменьшить масштаб, щелкните зеленую кнопку с тире; для просмотра соседних карт щелкайте зеленые стрелки.


METAR-TAF: